x

Gulf Of Maine - 78 Nm East Of Portsmouth, Nh (44005) Wave Buoy

1:50am - Thu 24th Apr 2014 All times are EDT. -4 hours from GMT.

  • Sig Wave height 7.9ft
  • Peak Period 6s
  • Average Period 5s
  • Wind
    31mph, 36mph gusts
  • Sea Temp 42°f
  • Air Temp 42°f
  • Sea Pressure 996.5mb
  • Gulf Of Maine - 78 Nm East Of Portsmouth, Nh
  • Gulf Of Maine - 78 Nm East Of Portsmouth, Nh

More Historic Weather Station data

Upgrade to MSW Pro to gain access to the past 30 days of data for over 8000 Wavebouys and Weather Stations around the globe.

Join Pro

Comparision Forecast

View Surf forecast
   
Thu 04/24 1:50am 8ft 6s 5s 31 36 mph 996.5mb 42f 42f
12:50am 7ft 6s 5s 29 36 mph 996.9mb 42f 42f
Wed 04/23 11:50pm 6.5ft 6s 5s 31 38 mph 996.6mb 42f 42f
10:50pm 7ft 6s 5s 31 38 mph 996.5mb 42f 44f
9:50pm 6ft 5s 5s 31 38 mph 996.3mb 42f 44f
8:50pm 4.5ft 5s 4s 27 34 mph 995.9mb 42f 44f
7:50pm 3.5ft 4s 4s 27 34 mph 995.3mb 42f 45f
6:50pm 2.5ft 8s 4s 20 25 mph 994.7mb 42f 45f
5:50pm 2.5ft 8s 5s 18 22 mph 994.2mb 42f 45f
4:50pm 2.5ft 9s 5s 13 16 mph 994.2mb 42f 45f
3:50pm 3ft 7s 6s 13 16 mph 994.2mb 42f 44f
2:50pm 3ft 9s 6s 11 13 mph 993.4mb 42f 44f
1:50pm 2.5ft 7s 6s 11 16 mph 993.6mb 42f 44f
12:50pm 3ft 8s 6s 7 11 mph 995.3mb 42f 43f
11:50am 3ft 7s 6s 9 11 mph 996.2mb 42f 43f
10:50am 2.5ft 8s 5s 7 9 mph 996.1mb 42f 44f
9:50am  -   -   -  4 7 mph 996mb 42f 44f
8:50am 3ft 9s 5s 2 4 mph 996.1mb 41f 44f
7:50am 3ft 9s 5s 7 9 mph 996.2mb 41f 44f
6:50am 3ft 5s 5s 7 9 mph 996mb 42f 44f
5:50am 3.5ft 5s 5s 11 16 mph 995.6mb 42f 45f
4:50am 3.5ft 5s 5s 11 13 mph 995.7mb 42f 45f
3:50am 3.5ft 6s 5s 13
mph
996.1mb 42f 45f
2:50am 4.5ft 5s 5s 13 16 mph 996.2mb 42f 45f
1:50am 4.5ft 5s 5s 16 18 mph 997.1mb 41f 45f
12:50am 5ft 5s 5s 18 22 mph 997.6mb 41f 45f
Tue 04/22 11:50pm 4.5ft 5s 5s 20 25 mph 997.5mb 41f 46f
10:50pm 4.5ft 5s 5s 20 25 mph 998.2mb 42f 46f
9:50pm 4.5ft 8s 5s 18 20 mph 998.7mb 42f 46f
8:50pm 4ft 8s 4s 20 22 mph 999mb 42f 47f
7:50pm 4ft 8s 5s 18 22 mph 999.2mb 42f 46f
6:50pm 3.5ft 8s 4s 20 22 mph 999.4mb 42f 46f
5:50pm 3.5ft 9s 5s 18 20 mph 999.9mb 42f 45f
4:50pm 3.5ft 9s 5s 16 18 mph 1000.3mb 42f 46f
3:50pm 3.5ft 9s 5s 18 22 mph 1000.7mb 42f 46f
2:50pm 3.5ft 8s 5s 16 18 mph 1002.1mb 42f 46f
1:50pm 3.5ft 8s 5s 16 18 mph 1003mb 42f 46f
12:50pm 3.5ft 8s 6s 11 13 mph 1003.8mb 42f 45f
11:50am 3.5ft 8s 6s 9 11 mph 1004.6mb 42f 44f
10:50am 3ft 8s 5s 9 11 mph 1005.4mb 42f 45f
9:50am 3ft 8s 5s 9 11 mph 1005.7mb 41f 44f
8:50am 3ft 5s 5s 11
mph
1006.1mb 41f 44f
7:50am 2.5ft 5s 4s 11 13 mph 1006.5mb 41f 44f
6:50am 3ft 4s 4s 11 13 mph 1006.7mb 41f 44f
5:50am 3.5ft 5s 4s 13
mph
1006.8mb 41f 44f
4:50am 3.5ft 5s 4s 13 16 mph 1007mb 41f 44f
3:50am 3.5ft 5s 4s 18 20 mph 1007.3mb 41f 45f
2:50am 3.5ft 4s 4s 18 22 mph 1007.9mb 41f 45f
1:50am 3.5ft 5s 4s 18 20 mph 1008.6mb 41f 45f
12:50am 3.5ft 4s 4s 20 22 mph 1009.3mb 41f 46f
Mon 04/21 11:50pm 3.5ft 4s 4s 20 22 mph 1009.9mb 41f 45f
10:50pm 3.5ft 5s 4s 20 22 mph 1010.5mb 41f 45f
9:50pm 3ft 4s 4s 20 22 mph 1011.3mb 42f 45f
8:50pm 2.5ft 4s 4s 18 20 mph 1011.8mb 42f 45f
7:50pm 2.5ft 8s 4s 18 20 mph 1012.2mb 42f 45f
6:50pm 2ft 16s 4s 13 16 mph 1012.8mb 42f 44f
5:50pm 2.5ft 4s 4s 13 16 mph 1013.6mb 42f 44f
4:50pm 2ft 3s 3s 16 20 mph 1014.1mb 42f 44f
3:50pm 2ft 3s 4s 16 20 mph 1015mb 42f 44f
2:50pm 2ft 16s 4s 13 16 mph 1016.2mb 42f 43f
1:50pm 2ft 4s 4s 13
mph
1017.7mb 42f 43f
12:50pm 2.5ft 4s 4s 11 16 mph 1019.3mb 42f 42f
11:50am 2.5ft 3s 4s 16 18 mph 1020.3mb 42f 42f
10:50am 2.5ft 8s 4s 18 20 mph 1021.1mb 42f 42f
9:50am 2.5ft 7s 4s 16 18 mph 1021.7mb 41f 42f
8:50am 2.5ft 8s 4s 16 18 mph 1022.6mb 41f 42f
7:50am 2ft 7s 4s 13 18 mph 1022.9mb 41f 42f
6:50am 2ft 8s 4s 13 16 mph 1023.7mb 41f 42f
5:50am 2ft 8s 4s 13 16 mph 1023.7mb 41f 41f
4:50am 2ft 4s 4s 11 13 mph 1023.7mb 41f 41f
3:50am 2ft 4s 4s 11 13 mph 1024.1mb 41f 41f
2:50am 2ft 4s 4s 11 13 mph 1024.9mb 41f -
1:50am 2.5ft 4s 4s 13 16 mph 1025.9mb 41f -
12:50am 2ft 3s 4s 13 16 mph 1027mb 41f -
Sun 04/20 11:50pm 2.5ft 9s 4s 16 20 mph 1027.6mb 41f -
10:50pm 2ft 8s 4s 16 18 mph 1028.3mb 41f -
9:50pm 2ft 8s 4s 13 16 mph 1029.4mb 41f -
8:50pm 1.6ft 8s 5s 13 16 mph 1030mb 42f -
7:50pm 1.6ft 8s 5s 11 13 mph 1030.1mb 42f -
6:50pm 2ft 8s 5s 11
mph
1030.2mb 42f 41f
5:50pm 2ft 8s 5s 9
mph
1030.9mb 42f 42f
4:50pm 2ft 5s 5s 7 9 mph 1031.4mb 42f 42f
3:50pm 2.5ft 5s 4s 7 9 mph 1031.7mb 42f 41f
2:50pm 2.5ft 4s 4s 4 7 mph 1032.1mb 42f 41f
1:50pm 2.5ft 4s 4s 4 7 mph 1032.6mb 41f 41f
12:50pm 2.5ft 5s 4s 9 11 mph 1032.3mb 41f 41f
11:50am 3ft 4s 4s 13
mph
1032.4mb 41f 40f
10:50am 3.5ft 4s 4s 13 16 mph 1032.9mb 41f 40f
9:50am 3.5ft 8s 4s 16 18 mph 1033.1mb 41f 41f
8:50am 3.5ft 4s 4s 18 22 mph 1032.6mb 41f 41f
7:50am 4ft 9s 4s 18 22 mph 1032.2mb 41f 41f